sensor_id;sensor_type;location;lat;lon;timestamp;P1;durP1;ratioP1;P2;durP2;ratioP2
14516;SDS011;7344;50.864;4.362;2024-01-15T00:01:20;36.53;;;18.27;;
14516;SDS011;7344;50.864;4.362;2024-01-15T00:03:46;38.03;;;18.43;;
14516;SDS011;7344;50.864;4.362;2024-01-15T00:06:12;35.37;;;18.90;;
14516;SDS011;7344;50.864;4.362;2024-01-15T00:08:37;33.83;;;17.77;;
14516;SDS011;7344;50.864;4.362;2024-01-15T00:11:03;35.70;;;17.30;;
14516;SDS011;7344;50.864;4.362;2024-01-15T00:13:28;37.13;;;18.10;;
14516;SDS011;7344;50.864;4.362;2024-01-15T00:15:54;32.20;;;17.30;;
14516;SDS011;7344;50.864;4.362;2024-01-15T00:18:20;30.50;;;15.77;;
14516;SDS011;7344;50.864;4.362;2024-01-15T00:20:45;31.40;;;17.00;;
14516;SDS011;7344;50.864;4.362;2024-01-15T00:23:11;33.00;;;16.50;;
14516;SDS011;7344;50.864;4.362;2024-01-15T00:25:36;29.63;;;16.00;;
14516;SDS011;7344;50.864;4.362;2024-01-15T00:28:02;29.70;;;16.13;;
14516;SDS011;7344;50.864;4.362;2024-01-15T00:30:28;28.53;;;16.07;;
14516;SDS011;7344;50.864;4.362;2024-01-15T00:32:53;28.43;;;15.60;;
14516;SDS011;7344;50.864;4.362;2024-01-15T00:35:19;31.43;;;15.37;;
14516;SDS011;7344;50.864;4.362;2024-01-15T00:37:44;26.37;;;14.40;;
14516;SDS011;7344;50.864;4.362;2024-01-15T00:40:10;23.60;;;14.07;;
14516;SDS011;7344;50.864;4.362;2024-01-15T00:42:35;24.10;;;14.20;;
14516;SDS011;7344;50.864;4.362;2024-01-15T00:45:01;25.93;;;13.80;;
14516;SDS011;7344;50.864;4.362;2024-01-15T00:47:27;29.17;;;13.63;;
14516;SDS011;7344;50.864;4.362;2024-01-15T00:49:52;26.27;;;13.50;;
14516;SDS011;7344;50.864;4.362;2024-01-15T00:52:18;25.30;;;12.90;;
14516;SDS011;7344;50.864;4.362;2024-01-15T00:54:43;21.83;;;12.47;;
14516;SDS011;7344;50.864;4.362;2024-01-15T00:57:09;17.73;;;10.63;;
14516;SDS011;7344;50.864;4.362;2024-01-15T00:59:34;22.27;;;12.37;;
14516;SDS011;7344;50.864;4.362;2024-01-15T01:02:00;19.90;;;11.50;;
14516;SDS011;7344;50.864;4.362;2024-01-15T01:04:27;17.27;;;10.90;;
14516;SDS011;7344;50.864;4.362;2024-01-15T01:06:53;18.50;;;11.17;;
14516;SDS011;7344;50.864;4.362;2024-01-15T01:09:18;19.93;;;11.23;;
14516;SDS011;7344;50.864;4.362;2024-01-15T01:11:44;16.43;;;9.50;;
14516;SDS011;7344;50.864;4.362;2024-01-15T01:14:09;15.70;;;9.57;;
14516;SDS011;7344;50.864;4.362;2024-01-15T01:16:35;16.47;;;9.10;;
14516;SDS011;7344;50.864;4.362;2024-01-15T01:19:04;13.37;;;9.37;;
14516;SDS011;7344;50.864;4.362;2024-01-15T01:21:31;13.70;;;8.53;;
14516;SDS011;7344;50.864;4.362;2024-01-15T01:23:57;13.70;;;8.07;;
14516;SDS011;7344;50.864;4.362;2024-01-15T01:26:22;12.30;;;7.70;;
14516;SDS011;7344;50.864;4.362;2024-01-15T01:28:48;10.60;;;6.67;;
14516;SDS011;7344;50.864;4.362;2024-01-15T01:31:13;10.73;;;6.80;;
14516;SDS011;7344;50.864;4.362;2024-01-15T01:33:41;6.43;;;5.73;;
14516;SDS011;7344;50.864;4.362;2024-01-15T01:36:08;6.00;;;5.40;;
14516;SDS011;7344;50.864;4.362;2024-01-15T01:38:34;8.17;;;6.30;;
14516;SDS011;7344;50.864;4.362;2024-01-15T01:41:00;8.43;;;5.67;;
14516;SDS011;7344;50.864;4.362;2024-01-15T01:43:26;6.97;;;5.70;;
14516;SDS011;7344;50.864;4.362;2024-01-15T01:45:52;8.70;;;6.00;;
14516;SDS011;7344;50.864;4.362;2024-01-15T01:48:19;9.67;;;5.97;;
14516;SDS011;7344;50.864;4.362;2024-01-15T01:50:45;7.33;;;5.73;;
14516;SDS011;7344;50.864;4.362;2024-01-15T01:53:10;8.63;;;5.60;;
14516;SDS011;7344;50.864;4.362;2024-01-15T01:55:36;7.33;;;5.77;;
14516;SDS011;7344;50.864;4.362;2024-01-15T01:58:03;8.27;;;5.30;;
14516;SDS011;7344;50.864;4.362;2024-01-15T02:00:30;8.03;;;5.17;;
14516;SDS011;7344;50.864;4.362;2024-01-15T02:02:57;8.70;;;5.27;;
14516;SDS011;7344;50.864;4.362;2024-01-15T02:05:23;5.50;;;5.00;;
14516;SDS011;7344;50.864;4.362;2024-01-15T02:07:48;5.57;;;4.90;;
14516;SDS011;7344;50.864;4.362;2024-01-15T02:10:14;5.30;;;4.80;;
14516;SDS011;7344;50.864;4.362;2024-01-15T02:12:39;5.53;;;4.87;;
14516;SDS011;7344;50.864;4.362;2024-01-15T02:15:05;5.17;;;4.50;;
14516;SDS011;7344;50.864;4.362;2024-01-15T02:17:31;5.40;;;4.40;;
14516;SDS011;7344;50.864;4.362;2024-01-15T02:19:56;4.93;;;4.50;;
14516;SDS011;7344;50.864;4.362;2024-01-15T02:22:22;6.57;;;4.27;;
14516;SDS011;7344;50.864;4.362;2024-01-15T02:24:48;6.43;;;4.50;;
14516;SDS011;7344;50.864;4.362;2024-01-15T02:27:13;6.17;;;4.63;;
14516;SDS011;7344;50.864;4.362;2024-01-15T02:29:39;5.07;;;4.57;;
14516;SDS011;7344;50.864;4.362;2024-01-15T02:32:05;5.90;;;4.40;;
14516;SDS011;7344;50.864;4.362;2024-01-15T02:34:32;8.87;;;4.23;;
14516;SDS011;7344;50.864;4.362;2024-01-15T02:36:58;4.90;;;3.70;;
14516;SDS011;7344;50.864;4.362;2024-01-15T02:39:23;8.40;;;4.10;;
14516;SDS011;7344;50.864;4.362;2024-01-15T02:41:49;6.87;;;3.60;;
14516;SDS011;7344;50.864;4.362;2024-01-15T02:44:14;4.10;;;3.73;;
14516;SDS011;7344;50.864;4.362;2024-01-15T02:46:40;7.87;;;4.10;;
14516;SDS011;7344;50.864;4.362;2024-01-15T02:49:05;6.63;;;4.23;;
14516;SDS011;7344;50.864;4.362;2024-01-15T02:51:31;6.90;;;4.67;;
14516;SDS011;7344;50.864;4.362;2024-01-15T02:53:56;5.67;;;5.00;;
14516;SDS011;7344;50.864;4.362;2024-01-15T02:56:22;6.50;;;5.10;;
14516;SDS011;7344;50.864;4.362;2024-01-15T02:58:48;7.50;;;5.67;;
14516;SDS011;7344;50.864;4.362;2024-01-15T03:01:13;10.00;;;6.07;;
14516;SDS011;7344;50.864;4.362;2024-01-15T03:03:39;10.20;;;6.50;;
14516;SDS011;7344;50.864;4.362;2024-01-15T03:06:05;9.90;;;7.23;;
14516;SDS011;7344;50.864;4.362;2024-01-15T03:08:31;17.53;;;8.13;;
14516;SDS011;7344;50.864;4.362;2024-01-15T03:10:56;13.70;;;7.97;;
14516;SDS011;7344;50.864;4.362;2024-01-15T03:13:22;12.30;;;8.27;;
14516;SDS011;7344;50.864;4.362;2024-01-15T03:15:48;14.73;;;9.67;;
14516;SDS011;7344;50.864;4.362;2024-01-15T03:18:13;20.53;;;9.60;;
14516;SDS011;7344;50.864;4.362;2024-01-15T03:20:39;15.93;;;10.20;;
14516;SDS011;7344;50.864;4.362;2024-01-15T03:23:04;18.17;;;10.50;;
14516;SDS011;7344;50.864;4.362;2024-01-15T03:25:30;19.03;;;10.83;;
14516;SDS011;7344;50.864;4.362;2024-01-15T03:27:55;14.77;;;10.70;;
14516;SDS011;7344;50.864;4.362;2024-01-15T03:30:21;18.47;;;11.33;;
14516;SDS011;7344;50.864;4.362;2024-01-15T03:32:46;18.30;;;11.87;;
14516;SDS011;7344;50.864;4.362;2024-01-15T03:35:12;16.00;;;11.30;;
14516;SDS011;7344;50.864;4.362;2024-01-15T03:37:38;19.30;;;10.83;;
14516;SDS011;7344;50.864;4.362;2024-01-15T03:40:03;19.70;;;11.97;;
14516;SDS011;7344;50.864;4.362;2024-01-15T03:42:29;19.83;;;11.97;;
14516;SDS011;7344;50.864;4.362;2024-01-15T03:44:55;18.97;;;11.87;;
14516;SDS011;7344;50.864;4.362;2024-01-15T03:47:20;21.67;;;12.13;;
14516;SDS011;7344;50.864;4.362;2024-01-15T03:49:46;21.13;;;13.10;;
14516;SDS011;7344;50.864;4.362;2024-01-15T03:52:11;21.17;;;12.97;;
14516;SDS011;7344;50.864;4.362;2024-01-15T03:54:37;24.43;;;13.43;;
14516;SDS011;7344;50.864;4.362;2024-01-15T03:57:03;25.03;;;13.80;;
14516;SDS011;7344;50.864;4.362;2024-01-15T03:59:29;23.00;;;13.97;;
14516;SDS011;7344;50.864;4.362;2024-01-15T04:01:55;23.53;;;13.73;;
14516;SDS011;7344;50.864;4.362;2024-01-15T04:04:20;22.97;;;14.20;;
14516;SDS011;7344;50.864;4.362;2024-01-15T04:06:46;23.83;;;14.40;;
14516;SDS011;7344;50.864;4.362;2024-01-15T04:09:12;24.33;;;14.07;;
14516;SDS011;7344;50.864;4.362;2024-01-15T04:11:38;26.07;;;14.87;;
14516;SDS011;7344;50.864;4.362;2024-01-15T04:14:04;25.17;;;15.10;;
14516;SDS011;7344;50.864;4.362;2024-01-15T04:16:30;30.80;;;15.00;;
14516;SDS011;7344;50.864;4.362;2024-01-15T04:18:56;25.60;;;15.27;;
14516;SDS011;7344;50.864;4.362;2024-01-15T04:21:21;25.07;;;15.63;;
14516;SDS011;7344;50.864;4.362;2024-01-15T04:23:47;26.30;;;15.07;;
14516;SDS011;7344;50.864;4.362;2024-01-15T04:26:12;24.50;;;14.87;;
14516;SDS011;7344;50.864;4.362;2024-01-15T04:28:38;27.87;;;15.00;;
14516;SDS011;7344;50.864;4.362;2024-01-15T04:31:03;24.13;;;13.97;;
14516;SDS011;7344;50.864;4.362;2024-01-15T04:33:29;23.27;;;14.33;;
14516;SDS011;7344;50.864;4.362;2024-01-15T04:35:54;25.03;;;15.00;;
14516;SDS011;7344;50.864;4.362;2024-01-15T04:38:20;22.93;;;14.33;;
14516;SDS011;7344;50.864;4.362;2024-01-15T04:40:46;26.03;;;13.60;;
14516;SDS011;7344;50.864;4.362;2024-01-15T04:43:11;21.83;;;13.03;;
14516;SDS011;7344;50.864;4.362;2024-01-15T04:45:37;23.00;;;13.20;;
14516;SDS011;7344;50.864;4.362;2024-01-15T04:48:02;21.13;;;13.00;;
14516;SDS011;7344;50.864;4.362;2024-01-15T04:50:28;21.60;;;12.40;;
14516;SDS011;7344;50.864;4.362;2024-01-15T04:52:54;21.83;;;11.90;;
14516;SDS011;7344;50.864;4.362;2024-01-15T04:55:19;21.00;;;11.90;;
14516;SDS011;7344;50.864;4.362;2024-01-15T04:57:45;17.80;;;10.10;;
14516;SDS011;7344;50.864;4.362;2024-01-15T05:00:11;16.17;;;10.77;;
14516;SDS011;7344;50.864;4.362;2024-01-15T05:02:38;15.73;;;9.93;;
14516;SDS011;7344;50.864;4.362;2024-01-15T05:05:03;15.27;;;9.80;;
14516;SDS011;7344;50.864;4.362;2024-01-15T05:07:29;12.10;;;7.40;;
14516;SDS011;7344;50.864;4.362;2024-01-15T05:09:54;9.70;;;6.10;;
14516;SDS011;7344;50.864;4.362;2024-01-15T05:12:20;8.00;;;5.60;;
14516;SDS011;7344;50.864;4.362;2024-01-15T05:14:46;7.77;;;4.60;;
14516;SDS011;7344;50.864;4.362;2024-01-15T05:17:11;5.47;;;4.03;;
14516;SDS011;7344;50.864;4.362;2024-01-15T05:19:37;9.43;;;4.53;;
14516;SDS011;7344;50.864;4.362;2024-01-15T05:22:02;4.63;;;3.30;;
14516;SDS011;7344;50.864;4.362;2024-01-15T05:24:28;5.97;;;3.30;;
14516;SDS011;7344;50.864;4.362;2024-01-15T05:26:53;3.23;;;3.03;;
14516;SDS011;7344;50.864;4.362;2024-01-15T05:29:19;5.80;;;3.27;;
14516;SDS011;7344;50.864;4.362;2024-01-15T05:31:44;2.87;;;2.67;;
14516;SDS011;7344;50.864;4.362;2024-01-15T05:34:10;4.00;;;2.73;;
14516;SDS011;7344;50.864;4.362;2024-01-15T05:36:36;4.40;;;2.60;;
14516;SDS011;7344;50.864;4.362;2024-01-15T05:39:01;5.07;;;2.80;;
14516;SDS011;7344;50.864;4.362;2024-01-15T05:41:28;6.23;;;2.67;;
14516;SDS011;7344;50.864;4.362;2024-01-15T05:43:53;3.47;;;3.00;;
14516;SDS011;7344;50.864;4.362;2024-01-15T05:46:19;5.27;;;2.70;;
14516;SDS011;7344;50.864;4.362;2024-01-15T05:48:45;5.20;;;2.30;;
14516;SDS011;7344;50.864;4.362;2024-01-15T05:51:10;6.00;;;2.80;;
14516;SDS011;7344;50.864;4.362;2024-01-15T05:53:36;3.37;;;2.90;;
14516;SDS011;7344;50.864;4.362;2024-01-15T05:56:03;8.53;;;3.20;;
14516;SDS011;7344;50.864;4.362;2024-01-15T05:58:29;3.47;;;2.50;;
14516;SDS011;7344;50.864;4.362;2024-01-15T06:00:54;3.83;;;2.27;;
14516;SDS011;7344;50.864;4.362;2024-01-15T06:03:20;9.90;;;2.37;;
14516;SDS011;7344;50.864;4.362;2024-01-15T06:05:45;2.67;;;2.23;;
14516;SDS011;7344;50.864;4.362;2024-01-15T06:08:11;7.73;;;1.70;;
14516;SDS011;7344;50.864;4.362;2024-01-15T06:10:36;5.37;;;2.00;;
14516;SDS011;7344;50.864;4.362;2024-01-15T06:13:02;3.60;;;1.90;;
14516;SDS011;7344;50.864;4.362;2024-01-15T06:15:28;4.43;;;2.23;;
14516;SDS011;7344;50.864;4.362;2024-01-15T06:17:53;2.60;;;1.80;;
14516;SDS011;7344;50.864;4.362;2024-01-15T06:20:19;2.87;;;1.50;;
14516;SDS011;7344;50.864;4.362;2024-01-15T06:22:44;4.23;;;1.60;;
14516;SDS011;7344;50.864;4.362;2024-01-15T06:25:10;2.23;;;1.67;;
14516;SDS011;7344;50.864;4.362;2024-01-15T06:27:35;3.23;;;1.70;;
14516;SDS011;7344;50.864;4.362;2024-01-15T06:30:01;6.07;;;2.00;;
14516;SDS011;7344;50.864;4.362;2024-01-15T06:32:27;4.63;;;2.13;;
14516;SDS011;7344;50.864;4.362;2024-01-15T06:34:52;4.43;;;2.20;;
14516;SDS011;7344;50.864;4.362;2024-01-15T06:37:18;5.73;;;2.37;;
14516;SDS011;7344;50.864;4.362;2024-01-15T06:39:45;3.57;;;2.10;;
14516;SDS011;7344;50.864;4.362;2024-01-15T06:42:10;8.37;;;2.60;;
14516;SDS011;7344;50.864;4.362;2024-01-15T06:44:36;3.07;;;2.20;;
14516;SDS011;7344;50.864;4.362;2024-01-15T06:47:02;8.43;;;2.90;;
14516;SDS011;7344;50.864;4.362;2024-01-15T06:49:28;7.17;;;2.87;;
14516;SDS011;7344;50.864;4.362;2024-01-15T06:51:54;4.63;;;2.70;;
14516;SDS011;7344;50.864;4.362;2024-01-15T06:54:20;6.77;;;3.00;;
14516;SDS011;7344;50.864;4.362;2024-01-15T06:56:46;3.23;;;2.90;;
14516;SDS011;7344;50.864;4.362;2024-01-15T06:59:11;4.97;;;3.27;;
14516;SDS011;7344;50.864;4.362;2024-01-15T07:01:37;5.87;;;3.87;;
14516;SDS011;7344;50.864;4.362;2024-01-15T07:04:03;6.73;;;3.50;;
14516;SDS011;7344;50.864;4.362;2024-01-15T07:06:28;9.83;;;3.70;;
14516;SDS011;7344;50.864;4.362;2024-01-15T07:08:55;7.80;;;3.10;;
14516;SDS011;7344;50.864;4.362;2024-01-15T07:11:21;4.97;;;3.20;;
14516;SDS011;7344;50.864;4.362;2024-01-15T07:13:46;9.70;;;3.43;;
14516;SDS011;7344;50.864;4.362;2024-01-15T07:16:12;7.93;;;3.23;;
14516;SDS011;7344;50.864;4.362;2024-01-15T07:18:38;10.47;;;3.70;;
14516;SDS011;7344;50.864;4.362;2024-01-15T07:21:03;5.67;;;3.00;;
14516;SDS011;7344;50.864;4.362;2024-01-15T07:23:30;9.73;;;4.03;;
14516;SDS011;7344;50.864;4.362;2024-01-15T07:25:57;7.73;;;5.70;;
14516;SDS011;7344;50.864;4.362;2024-01-15T07:28:22;6.93;;;3.80;;
14516;SDS011;7344;50.864;4.362;2024-01-15T07:30:48;5.57;;;3.40;;
14516;SDS011;7344;50.864;4.362;2024-01-15T07:33:13;6.97;;;3.57;;
14516;SDS011;7344;50.864;4.362;2024-01-15T07:35:40;14.90;;;4.10;;
14516;SDS011;7344;50.864;4.362;2024-01-15T07:38:06;10.47;;;3.83;;
14516;SDS011;7344;50.864;4.362;2024-01-15T07:40:31;9.60;;;3.80;;
14516;SDS011;7344;50.864;4.362;2024-01-15T07:42:57;6.97;;;4.10;;
14516;SDS011;7344;50.864;4.362;2024-01-15T07:45:23;10.73;;;4.03;;
14516;SDS011;7344;50.864;4.362;2024-01-15T07:47:48;7.07;;;4.27;;
14516;SDS011;7344;50.864;4.362;2024-01-15T07:50:14;11.47;;;5.90;;
14516;SDS011;7344;50.864;4.362;2024-01-15T07:52:40;8.60;;;5.60;;
14516;SDS011;7344;50.864;4.362;2024-01-15T07:55:09;11.03;;;5.10;;
14516;SDS011;7344;50.864;4.362;2024-01-15T07:57:34;28.10;;;7.57;;
14516;SDS011;7344;50.864;4.362;2024-01-15T08:00:01;13.87;;;5.90;;
14516;SDS011;7344;50.864;4.362;2024-01-15T08:02:29;7.43;;;5.10;;
14516;SDS011;7344;50.864;4.362;2024-01-15T08:04:54;9.67;;;5.57;;
14516;SDS011;7344;50.864;4.362;2024-01-15T08:07:20;7.67;;;5.00;;
14516;SDS011;7344;50.864;4.362;2024-01-15T08:09:45;7.03;;;4.57;;
14516;SDS011;7344;50.864;4.362;2024-01-15T08:12:12;10.17;;;4.90;;
14516;SDS011;7344;50.864;4.362;2024-01-15T08:14:38;12.73;;;4.90;;
14516;SDS011;7344;50.864;4.362;2024-01-15T08:17:04;11.97;;;4.40;;
14516;SDS011;7344;50.864;4.362;2024-01-15T08:19:29;7.87;;;3.70;;
14516;SDS011;7344;50.864;4.362;2024-01-15T08:21:55;3.50;;;3.13;;
14516;SDS011;7344;50.864;4.362;2024-01-15T08:24:20;13.67;;;4.10;;
14516;SDS011;7344;50.864;4.362;2024-01-15T08:26:46;5.87;;;2.93;;
14516;SDS011;7344;50.864;4.362;2024-01-15T08:29:12;5.33;;;3.40;;
14516;SDS011;7344;50.864;4.362;2024-01-15T08:31:37;11.20;;;3.43;;
14516;SDS011;7344;50.864;4.362;2024-01-15T08:34:03;4.17;;;2.80;;
14516;SDS011;7344;50.864;4.362;2024-01-15T08:36:28;3.43;;;2.50;;
14516;SDS011;7344;50.864;4.362;2024-01-15T08:38:57;7.63;;;2.87;;
14516;SDS011;7344;50.864;4.362;2024-01-15T08:41:22;8.30;;;2.70;;
14516;SDS011;7344;50.864;4.362;2024-01-15T08:43:49;9.27;;;2.87;;
14516;SDS011;7344;50.864;4.362;2024-01-15T08:46:14;11.47;;;3.17;;
14516;SDS011;7344;50.864;4.362;2024-01-15T08:48:40;9.67;;;3.03;;
14516;SDS011;7344;50.864;4.362;2024-01-15T08:51:05;7.87;;;3.00;;
14516;SDS011;7344;50.864;4.362;2024-01-15T08:53:32;7.07;;;2.60;;
14516;SDS011;7344;50.864;4.362;2024-01-15T08:55:58;10.77;;;2.90;;
14516;SDS011;7344;50.864;4.362;2024-01-15T08:58:24;7.33;;;2.67;;
14516;SDS011;7344;50.864;4.362;2024-01-15T09:00:50;7.70;;;2.40;;
14516;SDS011;7344;50.864;4.362;2024-01-15T09:03:16;6.73;;;2.63;;
14516;SDS011;7344;50.864;4.362;2024-01-15T09:05:41;9.27;;;2.60;;
14516;SDS011;7344;50.864;4.362;2024-01-15T09:08:08;10.23;;;2.20;;
14516;SDS011;7344;50.864;4.362;2024-01-15T09:10:33;7.17;;;2.33;;
14516;SDS011;7344;50.864;4.362;2024-01-15T09:12:59;6.40;;;2.13;;
14516;SDS011;7344;50.864;4.362;2024-01-15T09:15:25;9.17;;;2.27;;
14516;SDS011;7344;50.864;4.362;2024-01-15T09:17:50;8.03;;;2.70;;
14516;SDS011;7344;50.864;4.362;2024-01-15T09:20:16;6.73;;;2.60;;
14516;SDS011;7344;50.864;4.362;2024-01-15T09:22:42;7.23;;;2.67;;
14516;SDS011;7344;50.864;4.362;2024-01-15T09:25:09;5.17;;;2.47;;
14516;SDS011;7344;50.864;4.362;2024-01-15T09:27:35;7.23;;;2.27;;
14516;SDS011;7344;50.864;4.362;2024-01-15T09:30:01;5.60;;;2.37;;
14516;SDS011;7344;50.864;4.362;2024-01-15T09:32:27;3.33;;;2.90;;
14516;SDS011;7344;50.864;4.362;2024-01-15T09:34:53;4.50;;;2.60;;
14516;SDS011;7344;50.864;4.362;2024-01-15T09:37:18;8.97;;;2.57;;
14516;SDS011;7344;50.864;4.362;2024-01-15T09:39:44;4.80;;;2.60;;
14516;SDS011;7344;50.864;4.362;2024-01-15T09:42:09;7.43;;;2.33;;
14516;SDS011;7344;50.864;4.362;2024-01-15T09:44:35;6.10;;;2.33;;
14516;SDS011;7344;50.864;4.362;2024-01-15T09:47:02;3.93;;;1.70;;
14516;SDS011;7344;50.864;4.362;2024-01-15T09:49:28;3.20;;;2.00;;
14516;SDS011;7344;50.864;4.362;2024-01-15T09:51:55;8.03;;;2.43;;
14516;SDS011;7344;50.864;4.362;2024-01-15T09:54:21;6.73;;;2.30;;
14516;SDS011;7344;50.864;4.362;2024-01-15T09:56:48;6.77;;;2.40;;
14516;SDS011;7344;50.864;4.362;2024-01-15T09:59:17;4.47;;;2.20;;
14516;SDS011;7344;50.864;4.362;2024-01-15T10:01:44;6.60;;;2.00;;
14516;SDS011;7344;50.864;4.362;2024-01-15T10:04:13;4.93;;;2.00;;
14516;SDS011;7344;50.864;4.362;2024-01-15T10:06:39;6.47;;;2.23;;
14516;SDS011;7344;50.864;4.362;2024-01-15T10:09:10;7.93;;;2.00;;
14516;SDS011;7344;50.864;4.362;2024-01-15T10:11:39;6.23;;;2.20;;
14516;SDS011;7344;50.864;4.362;2024-01-15T10:14:06;7.63;;;2.50;;
14516;SDS011;7344;50.864;4.362;2024-01-15T10:16:32;5.10;;;2.00;;
14516;SDS011;7344;50.864;4.362;2024-01-15T10:18:58;7.43;;;2.83;;
14516;SDS011;7344;50.864;4.362;2024-01-15T10:21:24;7.27;;;2.30;;
14516;SDS011;7344;50.864;4.362;2024-01-15T10:23:51;5.67;;;2.13;;
14516;SDS011;7344;50.864;4.362;2024-01-15T10:26:17;3.67;;;1.90;;
14516;SDS011;7344;50.864;4.362;2024-01-15T10:28:42;7.97;;;2.30;;
14516;SDS011;7344;50.864;4.362;2024-01-15T10:31:08;6.53;;;2.10;;
14516;SDS011;7344;50.864;4.362;2024-01-15T10:33:35;6.33;;;2.40;;
14516;SDS011;7344;50.864;4.362;2024-01-15T10:36:00;7.53;;;2.20;;
14516;SDS011;7344;50.864;4.362;2024-01-15T10:38:26;3.93;;;2.13;;
14516;SDS011;7344;50.864;4.362;2024-01-15T10:40:52;4.93;;;1.77;;
14516;SDS011;7344;50.864;4.362;2024-01-15T10:43:18;6.83;;;2.10;;
14516;SDS011;7344;50.864;4.362;2024-01-15T10:45:45;6.93;;;1.73;;
14516;SDS011;7344;50.864;4.362;2024-01-15T10:48:11;5.27;;;2.03;;
14516;SDS011;7344;50.864;4.362;2024-01-15T10:50:37;6.43;;;2.10;;
14516;SDS011;7344;50.864;4.362;2024-01-15T10:53:03;3.53;;;1.77;;
14516;SDS011;7344;50.864;4.362;2024-01-15T10:55:30;3.40;;;1.90;;
14516;SDS011;7344;50.864;4.362;2024-01-15T10:57:57;5.27;;;1.97;;
14516;SDS011;7344;50.864;4.362;2024-01-15T11:00:23;5.30;;;2.07;;
14516;SDS011;7344;50.864;4.362;2024-01-15T11:02:50;4.20;;;1.97;;
14516;SDS011;7344;50.864;4.362;2024-01-15T11:05:16;6.27;;;2.27;;
14516;SDS011;7344;50.864;4.362;2024-01-15T11:07:43;4.23;;;2.13;;
14516;SDS011;7344;50.864;4.362;2024-01-15T11:10:35;3.67;;;1.70;;
14516;SDS011;7344;50.864;4.362;2024-01-15T11:13:13;7.10;;;2.20;;
14516;SDS011;7344;50.864;4.362;2024-01-15T11:19:01;7.40;;;1.83;;
14516;SDS011;7344;50.864;4.362;2024-01-15T11:21:23;6.20;;;2.13;;
14516;SDS011;7344;50.864;4.362;2024-01-15T11:23:58;6.03;;;1.80;;
14516;SDS011;7344;50.864;4.362;2024-01-15T11:26:37;8.47;;;2.10;;
14516;SDS011;7344;50.864;4.362;2024-01-15T11:29:06;9.73;;;1.97;;
14516;SDS011;7344;50.864;4.362;2024-01-15T11:34:05;6.20;;;2.00;;
14516;SDS011;7344;50.864;4.362;2024-01-15T11:42:02;3.33;;;1.40;;
14516;SDS011;7344;50.864;4.362;2024-01-15T11:44:29;4.83;;;1.43;;
14516;SDS011;7344;50.864;4.362;2024-01-15T11:47:02;4.80;;;1.60;;
14516;SDS011;7344;50.864;4.362;2024-01-15T11:52:33;5.43;;;1.90;;
14516;SDS011;7344;50.864;4.362;2024-01-15T11:57:33;6.90;;;1.70;;
14516;SDS011;7344;50.864;4.362;2024-01-15T12:00:06;4.40;;;1.83;;
14516;SDS011;7344;50.864;4.362;2024-01-15T12:02:34;5.83;;;2.20;;
14516;SDS011;7344;50.864;4.362;2024-01-15T12:05:00;3.37;;;1.67;;
14516;SDS011;7344;50.864;4.362;2024-01-15T12:07:26;11.73;;;2.30;;
14516;SDS011;7344;50.864;4.362;2024-01-15T12:09:51;8.40;;;2.07;;
14516;SDS011;7344;50.864;4.362;2024-01-15T12:12:29;3.40;;;1.50;;
14516;SDS011;7344;50.864;4.362;2024-01-15T12:15:09;9.30;;;1.70;;
14516;SDS011;7344;50.864;4.362;2024-01-15T12:17:35;5.77;;;2.03;;
14516;SDS011;7344;50.864;4.362;2024-01-15T12:20:01;2.50;;;1.43;;
14516;SDS011;7344;50.864;4.362;2024-01-15T12:22:28;6.20;;;1.40;;
14516;SDS011;7344;50.864;4.362;2024-01-15T12:24:54;4.53;;;2.10;;
14516;SDS011;7344;50.864;4.362;2024-01-15T12:27:20;5.90;;;1.80;;
14516;SDS011;7344;50.864;4.362;2024-01-15T12:29:46;6.10;;;1.83;;
14516;SDS011;7344;50.864;4.362;2024-01-15T12:32:12;6.20;;;2.20;;
14516;SDS011;7344;50.864;4.362;2024-01-15T12:34:37;4.67;;;1.90;;
14516;SDS011;7344;50.864;4.362;2024-01-15T12:37:03;5.40;;;1.80;;
14516;SDS011;7344;50.864;4.362;2024-01-15T12:39:29;2.40;;;1.60;;
14516;SDS011;7344;50.864;4.362;2024-01-15T12:41:55;4.00;;;1.40;;
14516;SDS011;7344;50.864;4.362;2024-01-15T12:44:20;3.83;;;1.50;;
14516;SDS011;7344;50.864;4.362;2024-01-15T12:46:46;7.30;;;1.80;;
14516;SDS011;7344;50.864;4.362;2024-01-15T12:49:12;4.93;;;1.83;;
14516;SDS011;7344;50.864;4.362;2024-01-15T12:51:38;7.97;;;1.90;;
14516;SDS011;7344;50.864;4.362;2024-01-15T12:54:04;3.83;;;2.10;;
14516;SDS011;7344;50.864;4.362;2024-01-15T12:56:30;5.07;;;1.90;;
14516;SDS011;7344;50.864;4.362;2024-01-15T12:58:55;7.87;;;2.00;;
14516;SDS011;7344;50.864;4.362;2024-01-15T13:01:21;5.43;;;2.40;;
14516;SDS011;7344;50.864;4.362;2024-01-15T13:03:46;6.33;;;2.23;;
14516;SDS011;7344;50.864;4.362;2024-01-15T13:06:12;8.70;;;2.17;;
14516;SDS011;7344;50.864;4.362;2024-01-15T13:08:38;7.17;;;1.67;;
14516;SDS011;7344;50.864;4.362;2024-01-15T13:11:03;2.77;;;1.80;;
14516;SDS011;7344;50.864;4.362;2024-01-15T13:13:29;2.90;;;1.70;;
14516;SDS011;7344;50.864;4.362;2024-01-15T13:15:55;6.23;;;1.90;;
14516;SDS011;7344;50.864;4.362;2024-01-15T13:18:21;6.77;;;2.33;;
14516;SDS011;7344;50.864;4.362;2024-01-15T13:20:46;13.20;;;2.77;;
14516;SDS011;7344;50.864;4.362;2024-01-15T13:23:12;6.93;;;2.37;;
14516;SDS011;7344;50.864;4.362;2024-01-15T13:25:38;5.00;;;2.57;;
14516;SDS011;7344;50.864;4.362;2024-01-15T13:28:04;7.27;;;1.90;;
14516;SDS011;7344;50.864;4.362;2024-01-15T13:30:30;5.93;;;1.83;;
14516;SDS011;7344;50.864;4.362;2024-01-15T13:32:56;7.23;;;1.90;;
14516;SDS011;7344;50.864;4.362;2024-01-15T13:35:22;5.10;;;1.73;;
14516;SDS011;7344;50.864;4.362;2024-01-15T13:37:48;10.90;;;2.10;;
14516;SDS011;7344;50.864;4.362;2024-01-15T13:40:14;7.13;;;2.00;;
14516;SDS011;7344;50.864;4.362;2024-01-15T13:42:45;7.37;;;2.10;;
14516;SDS011;7344;50.864;4.362;2024-01-15T13:45:10;8.40;;;2.10;;
14516;SDS011;7344;50.864;4.362;2024-01-15T13:47:39;15.33;;;2.50;;
14516;SDS011;7344;50.864;4.362;2024-01-15T13:50:06;7.53;;;2.60;;
14516;SDS011;7344;50.864;4.362;2024-01-15T13:52:32;5.97;;;1.90;;
14516;SDS011;7344;50.864;4.362;2024-01-15T13:54:58;13.03;;;2.60;;
14516;SDS011;7344;50.864;4.362;2024-01-15T13:57:23;8.80;;;2.50;;
14516;SDS011;7344;50.864;4.362;2024-01-15T13:59:49;9.83;;;2.33;;
14516;SDS011;7344;50.864;4.362;2024-01-15T14:02:14;10.77;;;2.23;;
14516;SDS011;7344;50.864;4.362;2024-01-15T14:04:40;4.17;;;1.80;;
14516;SDS011;7344;50.864;4.362;2024-01-15T14:07:06;4.43;;;1.97;;
14516;SDS011;7344;50.864;4.362;2024-01-15T14:09:32;4.83;;;2.00;;
14516;SDS011;7344;50.864;4.362;2024-01-15T14:11:57;5.20;;;2.10;;
14516;SDS011;7344;50.864;4.362;2024-01-15T14:14:23;5.73;;;2.07;;
14516;SDS011;7344;50.864;4.362;2024-01-15T14:16:49;6.37;;;1.80;;
14516;SDS011;7344;50.864;4.362;2024-01-15T14:19:14;6.67;;;1.87;;
14516;SDS011;7344;50.864;4.362;2024-01-15T14:21:40;5.33;;;1.70;;
14516;SDS011;7344;50.864;4.362;2024-01-15T14:24:06;6.53;;;2.33;;
14516;SDS011;7344;50.864;4.362;2024-01-15T14:26:32;4.40;;;2.13;;
14516;SDS011;7344;50.864;4.362;2024-01-15T14:28:57;5.00;;;1.83;;
14516;SDS011;7344;50.864;4.362;2024-01-15T14:31:24;5.33;;;1.97;;
14516;SDS011;7344;50.864;4.362;2024-01-15T14:33:51;7.70;;;2.77;;
14516;SDS011;7344;50.864;4.362;2024-01-15T14:36:17;2.53;;;1.43;;
14516;SDS011;7344;50.864;4.362;2024-01-15T14:38:43;1.70;;;1.33;;
14516;SDS011;7344;50.864;4.362;2024-01-15T14:41:08;1.43;;;1.30;;
14516;SDS011;7344;50.864;4.362;2024-01-15T14:43:34;3.23;;;1.73;;
14516;SDS011;7344;50.864;4.362;2024-01-15T14:45:59;5.03;;;1.57;;
14516;SDS011;7344;50.864;4.362;2024-01-15T14:48:25;3.03;;;1.83;;
14516;SDS011;7344;50.864;4.362;2024-01-15T14:50:51;3.93;;;2.40;;
14516;SDS011;7344;50.864;4.362;2024-01-15T14:53:16;3.37;;;2.03;;
14516;SDS011;7344;50.864;4.362;2024-01-15T14:55:42;3.67;;;2.33;;
14516;SDS011;7344;50.864;4.362;2024-01-15T14:58:08;3.83;;;1.90;;
14516;SDS011;7344;50.864;4.362;2024-01-15T15:00:33;4.97;;;2.00;;
14516;SDS011;7344;50.864;4.362;2024-01-15T15:02:59;5.83;;;2.73;;
14516;SDS011;7344;50.864;4.362;2024-01-15T15:05:25;3.87;;;2.00;;